sensor_id;sensor_type;location;lat;lon;timestamp;temperature;humidity
67817;DHT22;54614;47.576;7.524;2023-07-31T00:00:31;25.60;63.40
67817;DHT22;54614;47.576;7.524;2023-07-31T00:02:56;25.60;63.40
67817;DHT22;54614;47.576;7.524;2023-07-31T00:05:22;25.60;63.40
67817;DHT22;54614;47.576;7.524;2023-07-31T00:07:48;25.60;63.40
67817;DHT22;54614;47.576;7.524;2023-07-31T00:10:14;25.60;63.40
67817;DHT22;54614;47.576;7.524;2023-07-31T00:12:42;25.60;63.40
67817;DHT22;54614;47.576;7.524;2023-07-31T00:15:09;25.60;63.30
67817;DHT22;54614;47.576;7.524;2023-07-31T00:17:35;25.60;63.30
67817;DHT22;54614;47.576;7.524;2023-07-31T00:20:02;25.60;63.30
67817;DHT22;54614;47.576;7.524;2023-07-31T00:22:28;25.60;63.20
67817;DHT22;54614;47.576;7.524;2023-07-31T00:24:56;25.60;63.10
67817;DHT22;54614;47.576;7.524;2023-07-31T00:27:23;25.60;63.20
67817;DHT22;54614;47.576;7.524;2023-07-31T00:29:48;25.60;63.10
67817;DHT22;54614;47.576;7.524;2023-07-31T00:32:14;25.50;63.10
67817;DHT22;54614;47.576;7.524;2023-07-31T00:34:40;25.50;63.10
67817;DHT22;54614;47.576;7.524;2023-07-31T00:37:06;25.50;63.10
67817;DHT22;54614;47.576;7.524;2023-07-31T00:39:33;25.50;63.10
67817;DHT22;54614;47.576;7.524;2023-07-31T00:42:00;25.50;63.20
67817;DHT22;54614;47.576;7.524;2023-07-31T00:44:26;25.50;63.10
67817;DHT22;54614;47.576;7.524;2023-07-31T00:46:52;25.50;63.00
67817;DHT22;54614;47.576;7.524;2023-07-31T00:49:19;25.50;63.20
67817;DHT22;54614;47.576;7.524;2023-07-31T00:51:46;25.50;63.10
67817;DHT22;54614;47.576;7.524;2023-07-31T00:54:11;25.50;63.10
67817;DHT22;54614;47.576;7.524;2023-07-31T00:56:38;25.50;63.00
67817;DHT22;54614;47.576;7.524;2023-07-31T00:59:06;25.50;63.10
67817;DHT22;54614;47.576;7.524;2023-07-31T01:01:31;25.50;63.00
67817;DHT22;54614;47.576;7.524;2023-07-31T01:03:57;25.50;63.00
67817;DHT22;54614;47.576;7.524;2023-07-31T01:09:47;25.50;63.00
67817;DHT22;54614;47.576;7.524;2023-07-31T01:12:23;25.50;62.90
67817;DHT22;54614;47.576;7.524;2023-07-31T01:15:08;25.50;62.90
67817;DHT22;54614;47.576;7.524;2023-07-31T01:17:38;25.50;63.00
67817;DHT22;54614;47.576;7.524;2023-07-31T01:20:12;25.50;62.90
67817;DHT22;54614;47.576;7.524;2023-07-31T01:25:56;25.50;62.90
67817;DHT22;54614;47.576;7.524;2023-07-31T01:28:50;25.50;62.90
67817;DHT22;54614;47.576;7.524;2023-07-31T01:31:25;25.50;62.90
67817;DHT22;54614;47.576;7.524;2023-07-31T01:33:56;25.40;62.80
67817;DHT22;54614;47.576;7.524;2023-07-31T01:36:25;25.40;62.70
67817;DHT22;54614;47.576;7.524;2023-07-31T01:38:51;25.40;62.80
67817;DHT22;54614;47.576;7.524;2023-07-31T01:41:18;25.50;62.90
67817;DHT22;54614;47.576;7.524;2023-07-31T01:43:45;25.40;62.70
67817;DHT22;54614;47.576;7.524;2023-07-31T01:46:12;25.40;62.80
67817;DHT22;54614;47.576;7.524;2023-07-31T01:48:37;25.40;62.70
67817;DHT22;54614;47.576;7.524;2023-07-31T01:51:03;25.40;62.70
67817;DHT22;54614;47.576;7.524;2023-07-31T01:53:31;25.40;62.70
67817;DHT22;54614;47.576;7.524;2023-07-31T01:55:57;25.40;62.60
67817;DHT22;54614;47.576;7.524;2023-07-31T01:58:23;25.40;62.60
67817;DHT22;54614;47.576;7.524;2023-07-31T02:00:48;25.40;63.40
67817;DHT22;54614;47.576;7.524;2023-07-31T02:03:14;25.40;62.60
67817;DHT22;54614;47.576;7.524;2023-07-31T02:05:47;25.40;62.60
67817;DHT22;54614;47.576;7.524;2023-07-31T02:08:15;25.40;62.60
67817;DHT22;54614;47.576;7.524;2023-07-31T02:10:41;25.40;62.50
67817;DHT22;54614;47.576;7.524;2023-07-31T02:13:07;25.40;62.50
67817;DHT22;54614;47.576;7.524;2023-07-31T02:15:34;25.40;62.50
67817;DHT22;54614;47.576;7.524;2023-07-31T02:18:00;25.40;62.50
67817;DHT22;54614;47.576;7.524;2023-07-31T02:20:26;25.40;62.50
67817;DHT22;54614;47.576;7.524;2023-07-31T02:22:52;25.40;62.50
67817;DHT22;54614;47.576;7.524;2023-07-31T02:25:17;25.40;62.50
67817;DHT22;54614;47.576;7.524;2023-07-31T02:27:43;25.40;62.50
67817;DHT22;54614;47.576;7.524;2023-07-31T02:30:09;25.40;62.50
67817;DHT22;54614;47.576;7.524;2023-07-31T02:32:36;25.40;62.50
67817;DHT22;54614;47.576;7.524;2023-07-31T02:35:01;25.40;62.50
67817;DHT22;54614;47.576;7.524;2023-07-31T02:37:28;25.40;62.50
67817;DHT22;54614;47.576;7.524;2023-07-31T02:39:54;25.40;62.50
67817;DHT22;54614;47.576;7.524;2023-07-31T02:42:20;25.40;62.50
67817;DHT22;54614;47.576;7.524;2023-07-31T02:44:46;25.40;62.40
67817;DHT22;54614;47.576;7.524;2023-07-31T02:47:12;25.40;62.30
67817;DHT22;54614;47.576;7.524;2023-07-31T02:49:38;25.40;62.30
67817;DHT22;54614;47.576;7.524;2023-07-31T02:52:04;25.40;62.40
67817;DHT22;54614;47.576;7.524;2023-07-31T02:54:29;25.40;62.50
67817;DHT22;54614;47.576;7.524;2023-07-31T02:56:55;25.40;62.40
67817;DHT22;54614;47.576;7.524;2023-07-31T02:59:21;25.40;62.30
67817;DHT22;54614;47.576;7.524;2023-07-31T03:01:47;25.40;62.10
67817;DHT22;54614;47.576;7.524;2023-07-31T03:04:12;25.40;63.00
67817;DHT22;54614;47.576;7.524;2023-07-31T03:06:38;25.40;62.20
67817;DHT22;54614;47.576;7.524;2023-07-31T03:09:04;25.40;62.30
67817;DHT22;54614;47.576;7.524;2023-07-31T03:11:30;25.30;62.20
67817;DHT22;54614;47.576;7.524;2023-07-31T03:13:55;25.30;62.30
67817;DHT22;54614;47.576;7.524;2023-07-31T03:16:21;25.30;62.20
67817;DHT22;54614;47.576;7.524;2023-07-31T03:18:47;25.40;62.20
67817;DHT22;54614;47.576;7.524;2023-07-31T03:21:14;25.30;62.30
67817;DHT22;54614;47.576;7.524;2023-07-31T03:23:40;25.30;62.30
67817;DHT22;54614;47.576;7.524;2023-07-31T03:26:07;25.30;62.20
67817;DHT22;54614;47.576;7.524;2023-07-31T03:28:33;25.30;62.20
67817;DHT22;54614;47.576;7.524;2023-07-31T03:30:59;25.30;62.30
67817;DHT22;54614;47.576;7.524;2023-07-31T03:33:25;25.30;62.20
67817;DHT22;54614;47.576;7.524;2023-07-31T03:35:52;25.30;62.20
67817;DHT22;54614;47.576;7.524;2023-07-31T03:38:18;25.30;62.20
67817;DHT22;54614;47.576;7.524;2023-07-31T03:40:44;25.30;62.20
67817;DHT22;54614;47.576;7.524;2023-07-31T03:43:10;25.30;62.30
67817;DHT22;54614;47.576;7.524;2023-07-31T03:45:36;25.30;62.20
67817;DHT22;54614;47.576;7.524;2023-07-31T03:48:03;25.20;62.10
67817;DHT22;54614;47.576;7.524;2023-07-31T03:50:29;25.30;62.20
67817;DHT22;54614;47.576;7.524;2023-07-31T03:52:55;25.30;62.30
67817;DHT22;54614;47.576;7.524;2023-07-31T03:55:21;25.40;62.30
67817;DHT22;54614;47.576;7.524;2023-07-31T03:57:47;25.40;61.80
67817;DHT22;54614;47.576;7.524;2023-07-31T04:00:14;25.30;61.90
67817;DHT22;54614;47.576;7.524;2023-07-31T04:02:39;25.30;62.30
67817;DHT22;54614;47.576;7.524;2023-07-31T04:05:06;25.30;62.30
67817;DHT22;54614;47.576;7.524;2023-07-31T04:07:32;25.30;62.20
67817;DHT22;54614;47.576;7.524;2023-07-31T04:09:58;25.20;62.00
67817;DHT22;54614;47.576;7.524;2023-07-31T04:12:23;25.30;62.10
67817;DHT22;54614;47.576;7.524;2023-07-31T04:14:49;25.20;62.00
67817;DHT22;54614;47.576;7.524;2023-07-31T04:17:15;25.20;62.00
67817;DHT22;54614;47.576;7.524;2023-07-31T04:19:43;25.20;62.00
67817;DHT22;54614;47.576;7.524;2023-07-31T04:22:08;25.20;61.90
67817;DHT22;54614;47.576;7.524;2023-07-31T04:24:34;25.20;61.90
67817;DHT22;54614;47.576;7.524;2023-07-31T04:27:00;25.20;61.90
67817;DHT22;54614;47.576;7.524;2023-07-31T04:29:26;25.20;61.70
67817;DHT22;54614;47.576;7.524;2023-07-31T04:31:51;25.20;61.70
67817;DHT22;54614;47.576;7.524;2023-07-31T04:34:17;25.20;61.80
67817;DHT22;54614;47.576;7.524;2023-07-31T04:36:43;25.20;61.80
67817;DHT22;54614;47.576;7.524;2023-07-31T04:39:08;25.20;61.80
67817;DHT22;54614;47.576;7.524;2023-07-31T04:41:34;25.20;61.70
67817;DHT22;54614;47.576;7.524;2023-07-31T04:44:00;25.20;61.70
67817;DHT22;54614;47.576;7.524;2023-07-31T04:46:26;25.20;61.80
67817;DHT22;54614;47.576;7.524;2023-07-31T04:48:52;25.20;61.80
67817;DHT22;54614;47.576;7.524;2023-07-31T04:51:18;25.20;61.60
67817;DHT22;54614;47.576;7.524;2023-07-31T04:53:44;25.20;61.60
67817;DHT22;54614;47.576;7.524;2023-07-31T04:56:09;25.20;61.70
67817;DHT22;54614;47.576;7.524;2023-07-31T04:58:35;25.20;61.70
67817;DHT22;54614;47.576;7.524;2023-07-31T05:01:01;25.20;61.70
67817;DHT22;54614;47.576;7.524;2023-07-31T05:03:26;25.20;61.70
67817;DHT22;54614;47.576;7.524;2023-07-31T05:05:52;25.20;61.60
67817;DHT22;54614;47.576;7.524;2023-07-31T05:08:18;25.20;61.60
67817;DHT22;54614;47.576;7.524;2023-07-31T05:10:44;25.20;61.60
67817;DHT22;54614;47.576;7.524;2023-07-31T05:13:09;25.20;61.50
67817;DHT22;54614;47.576;7.524;2023-07-31T05:15:35;25.20;61.60
67817;DHT22;54614;47.576;7.524;2023-07-31T05:18:01;25.20;61.60
67817;DHT22;54614;47.576;7.524;2023-07-31T05:20:27;25.20;61.60
67817;DHT22;54614;47.576;7.524;2023-07-31T05:22:53;25.20;61.60
67817;DHT22;54614;47.576;7.524;2023-07-31T05:25:19;25.20;61.50
67817;DHT22;54614;47.576;7.524;2023-07-31T05:27:45;25.20;61.70
67817;DHT22;54614;47.576;7.524;2023-07-31T05:30:10;25.20;61.70
67817;DHT22;54614;47.576;7.524;2023-07-31T05:32:36;25.20;61.70
67817;DHT22;54614;47.576;7.524;2023-07-31T05:35:02;25.20;61.70
67817;DHT22;54614;47.576;7.524;2023-07-31T05:37:28;25.20;61.60
67817;DHT22;54614;47.576;7.524;2023-07-31T05:39:54;25.00;60.40
67817;DHT22;54614;47.576;7.524;2023-07-31T05:42:19;24.80;59.50
67817;DHT22;54614;47.576;7.524;2023-07-31T05:44:45;24.70;59.30
67817;DHT22;54614;47.576;7.524;2023-07-31T05:47:11;24.50;59.40
67817;DHT22;54614;47.576;7.524;2023-07-31T05:49:37;24.40;59.40
67817;DHT22;54614;47.576;7.524;2023-07-31T05:52:02;24.40;59.40
67817;DHT22;54614;47.576;7.524;2023-07-31T05:54:28;24.30;59.40
67817;DHT22;54614;47.576;7.524;2023-07-31T05:56:55;24.30;59.50
67817;DHT22;54614;47.576;7.524;2023-07-31T05:59:20;24.40;59.40
67817;DHT22;54614;47.576;7.524;2023-07-31T06:01:46;24.40;59.40
67817;DHT22;54614;47.576;7.524;2023-07-31T06:04:12;24.50;59.30
67817;DHT22;54614;47.576;7.524;2023-07-31T06:06:38;24.40;59.00
67817;DHT22;54614;47.576;7.524;2023-07-31T06:09:03;24.40;59.20
67817;DHT22;54614;47.576;7.524;2023-07-31T06:11:29;24.30;59.60
67817;DHT22;54614;47.576;7.524;2023-07-31T06:13:55;24.20;59.80
67817;DHT22;54614;47.576;7.524;2023-07-31T06:16:20;24.20;60.00
67817;DHT22;54614;47.576;7.524;2023-07-31T06:18:47;24.20;60.30
67817;DHT22;54614;47.576;7.524;2023-07-31T06:21:13;24.20;60.20
67817;DHT22;54614;47.576;7.524;2023-07-31T06:23:39;24.20;60.40
67817;DHT22;54614;47.576;7.524;2023-07-31T06:26:04;24.20;60.50
67817;DHT22;54614;47.576;7.524;2023-07-31T06:28:31;24.20;60.60
67817;DHT22;54614;47.576;7.524;2023-07-31T06:30:58;24.20;61.50
67817;DHT22;54614;47.576;7.524;2023-07-31T06:33:24;24.10;61.10
67817;DHT22;54614;47.576;7.524;2023-07-31T06:35:50;24.20;63.90
67817;DHT22;54614;47.576;7.524;2023-07-31T06:38:18;24.50;65.10
67817;DHT22;54614;47.576;7.524;2023-07-31T06:40:48;24.60;64.60
67817;DHT22;54614;47.576;7.524;2023-07-31T06:43:14;24.70;64.20
67817;DHT22;54614;47.576;7.524;2023-07-31T06:45:40;24.70;66.90
67817;DHT22;54614;47.576;7.524;2023-07-31T06:48:05;24.70;64.60
67817;DHT22;54614;47.576;7.524;2023-07-31T06:50:32;24.70;64.20
67817;DHT22;54614;47.576;7.524;2023-07-31T06:52:58;24.70;63.50
67817;DHT22;54614;47.576;7.524;2023-07-31T06:55:24;24.70;63.80
67817;DHT22;54614;47.576;7.524;2023-07-31T06:57:53;24.80;64.30
67817;DHT22;54614;47.576;7.524;2023-07-31T07:00:20;24.70;64.20
67817;DHT22;54614;47.576;7.524;2023-07-31T07:02:48;24.70;63.70
67817;DHT22;54614;47.576;7.524;2023-07-31T07:05:14;24.80;63.60
67817;DHT22;54614;47.576;7.524;2023-07-31T07:07:41;24.80;63.20
67817;DHT22;54614;47.576;7.524;2023-07-31T07:10:07;24.70;63.60
67817;DHT22;54614;47.576;7.524;2023-07-31T07:12:34;24.70;64.00
67817;DHT22;54614;47.576;7.524;2023-07-31T07:15:00;24.70;63.80
67817;DHT22;54614;47.576;7.524;2023-07-31T07:17:27;24.80;63.60
67817;DHT22;54614;47.576;7.524;2023-07-31T07:19:56;24.80;63.30
67817;DHT22;54614;47.576;7.524;2023-07-31T07:22:23;24.80;63.30
67817;DHT22;54614;47.576;7.524;2023-07-31T07:24:49;24.80;63.40
67817;DHT22;54614;47.576;7.524;2023-07-31T07:27:15;24.80;63.40
67817;DHT22;54614;47.576;7.524;2023-07-31T07:29:40;24.80;63.20
67817;DHT22;54614;47.576;7.524;2023-07-31T07:32:06;24.80;63.10
67817;DHT22;54614;47.576;7.524;2023-07-31T07:34:32;24.80;63.10
67817;DHT22;54614;47.576;7.524;2023-07-31T07:36:58;24.80;63.20
67817;DHT22;54614;47.576;7.524;2023-07-31T07:39:24;24.80;63.10
67817;DHT22;54614;47.576;7.524;2023-07-31T07:41:50;24.80;63.10
67817;DHT22;54614;47.576;7.524;2023-07-31T07:44:16;24.80;62.90
67817;DHT22;54614;47.576;7.524;2023-07-31T07:46:42;24.80;63.00
67817;DHT22;54614;47.576;7.524;2023-07-31T07:49:08;24.80;63.20
67817;DHT22;54614;47.576;7.524;2023-07-31T07:51:34;24.80;63.10
67817;DHT22;54614;47.576;7.524;2023-07-31T07:54:00;24.80;63.10
67817;DHT22;54614;47.576;7.524;2023-07-31T07:56:26;24.80;63.10
67817;DHT22;54614;47.576;7.524;2023-07-31T07:58:53;24.80;63.10
67817;DHT22;54614;47.576;7.524;2023-07-31T08:01:19;24.80;63.10
67817;DHT22;54614;47.576;7.524;2023-07-31T08:03:46;24.80;63.10
67817;DHT22;54614;47.576;7.524;2023-07-31T08:06:13;24.80;63.20
67817;DHT22;54614;47.576;7.524;2023-07-31T08:08:39;24.80;63.10
67817;DHT22;54614;47.576;7.524;2023-07-31T08:11:06;24.80;63.10
67817;DHT22;54614;47.576;7.524;2023-07-31T08:13:32;24.80;63.10
67817;DHT22;54614;47.576;7.524;2023-07-31T08:15:58;24.80;63.00
67817;DHT22;54614;47.576;7.524;2023-07-31T08:18:24;24.80;63.20
67817;DHT22;54614;47.576;7.524;2023-07-31T08:20:50;24.80;63.10
67817;DHT22;54614;47.576;7.524;2023-07-31T08:23:16;24.80;63.00
67817;DHT22;54614;47.576;7.524;2023-07-31T08:25:42;24.80;63.10
67817;DHT22;54614;47.576;7.524;2023-07-31T08:28:08;24.80;63.10
67817;DHT22;54614;47.576;7.524;2023-07-31T08:30:33;24.80;62.90
67817;DHT22;54614;47.576;7.524;2023-07-31T08:33:00;24.80;62.90
67817;DHT22;54614;47.576;7.524;2023-07-31T08:35:26;24.90;63.00
67817;DHT22;54614;47.576;7.524;2023-07-31T08:37:55;24.90;63.30
67817;DHT22;54614;47.576;7.524;2023-07-31T08:40:21;24.90;62.90
67817;DHT22;54614;47.576;7.524;2023-07-31T08:42:53;24.90;62.90
67817;DHT22;54614;47.576;7.524;2023-07-31T08:45:20;24.90;62.80
67817;DHT22;54614;47.576;7.524;2023-07-31T08:47:48;24.90;62.90
67817;DHT22;54614;47.576;7.524;2023-07-31T08:50:20;24.90;62.90
67817;DHT22;54614;47.576;7.524;2023-07-31T08:52:47;24.90;62.90
67817;DHT22;54614;47.576;7.524;2023-07-31T08:55:15;24.90;62.90
67817;DHT22;54614;47.576;7.524;2023-07-31T08:57:41;24.90;63.00
67817;DHT22;54614;47.576;7.524;2023-07-31T09:00:10;24.90;63.00
67817;DHT22;54614;47.576;7.524;2023-07-31T09:03:09;24.90;62.80
67817;DHT22;54614;47.576;7.524;2023-07-31T09:05:39;25.00;62.80
67817;DHT22;54614;47.576;7.524;2023-07-31T09:08:09;25.00;62.80
67817;DHT22;54614;47.576;7.524;2023-07-31T09:10:41;25.00;62.80
67817;DHT22;54614;47.576;7.524;2023-07-31T09:13:09;25.00;62.80
67817;DHT22;54614;47.576;7.524;2023-07-31T09:15:36;25.00;62.70
67817;DHT22;54614;47.576;7.524;2023-07-31T09:18:04;25.00;62.70
67817;DHT22;54614;47.576;7.524;2023-07-31T09:20:31;25.00;62.90
67817;DHT22;54614;47.576;7.524;2023-07-31T09:23:05;25.00;62.80
67817;DHT22;54614;47.576;7.524;2023-07-31T09:25:33;25.00;62.80
67817;DHT22;54614;47.576;7.524;2023-07-31T09:28:01;25.00;62.70
67817;DHT22;54614;47.576;7.524;2023-07-31T09:30:28;25.00;62.80
67817;DHT22;54614;47.576;7.524;2023-07-31T09:33:05;25.00;62.70
67817;DHT22;54614;47.576;7.524;2023-07-31T09:35:34;25.00;62.70
67817;DHT22;54614;47.576;7.524;2023-07-31T09:38:03;25.00;62.70
67817;DHT22;54614;47.576;7.524;2023-07-31T09:40:36;25.00;62.70
67817;DHT22;54614;47.576;7.524;2023-07-31T09:43:05;25.10;63.40
67817;DHT22;54614;47.576;7.524;2023-07-31T09:45:37;25.10;62.70
67817;DHT22;54614;47.576;7.524;2023-07-31T09:48:13;25.00;62.60
67817;DHT22;54614;47.576;7.524;2023-07-31T09:50:45;25.10;62.70
67817;DHT22;54614;47.576;7.524;2023-07-31T09:53:12;25.00;62.60
67817;DHT22;54614;47.576;7.524;2023-07-31T09:55:39;25.00;62.60
67817;DHT22;54614;47.576;7.524;2023-07-31T09:58:09;25.10;62.80
67817;DHT22;54614;47.576;7.524;2023-07-31T10:00:36;25.10;62.60
67817;DHT22;54614;47.576;7.524;2023-07-31T10:03:08;25.10;62.60
67817;DHT22;54614;47.576;7.524;2023-07-31T10:05:37;25.10;62.70
67817;DHT22;54614;47.576;7.524;2023-07-31T10:08:07;25.10;62.70
67817;DHT22;54614;47.576;7.524;2023-07-31T10:10:36;25.10;62.60
67817;DHT22;54614;47.576;7.524;2023-07-31T10:13:06;25.10;62.70
67817;DHT22;54614;47.576;7.524;2023-07-31T10:15:33;25.10;62.60
67817;DHT22;54614;47.576;7.524;2023-07-31T10:18:01;25.10;62.60
67817;DHT22;54614;47.576;7.524;2023-07-31T10:20:29;25.10;62.60
67817;DHT22;54614;47.576;7.524;2023-07-31T10:22:55;25.10;62.60
67817;DHT22;54614;47.576;7.524;2023-07-31T10:25:22;25.10;62.60
67817;DHT22;54614;47.576;7.524;2023-07-31T10:27:49;25.10;62.70
67817;DHT22;54614;47.576;7.524;2023-07-31T10:30:20;25.10;62.70
67817;DHT22;54614;47.576;7.524;2023-07-31T10:32:51;25.10;62.70
67817;DHT22;54614;47.576;7.524;2023-07-31T10:35:18;25.10;62.60
67817;DHT22;54614;47.576;7.524;2023-07-31T10:37:47;25.20;62.70
67817;DHT22;54614;47.576;7.524;2023-07-31T10:40:25;25.20;62.70
67817;DHT22;54614;47.576;7.524;2023-07-31T10:42:54;25.10;62.70
67817;DHT22;54614;47.576;7.524;2023-07-31T10:48:05;25.20;62.70
67817;DHT22;54614;47.576;7.524;2023-07-31T10:50:36;25.20;62.60
67817;DHT22;54614;47.576;7.524;2023-07-31T10:53:03;25.20;62.60
67817;DHT22;54614;47.576;7.524;2023-07-31T10:55:43;25.20;62.60
67817;DHT22;54614;47.576;7.524;2023-07-31T10:58:11;25.20;62.60
67817;DHT22;54614;47.576;7.524;2023-07-31T11:00:39;25.20;62.60
67817;DHT22;54614;47.576;7.524;2023-07-31T11:03:08;25.20;62.60
67817;DHT22;54614;47.576;7.524;2023-07-31T11:08:32;25.20;62.60
67817;DHT22;54614;47.576;7.524;2023-07-31T11:13:28;25.20;62.60
67817;DHT22;54614;47.576;7.524;2023-07-31T11:15:54;25.20;62.60
67817;DHT22;54614;47.576;7.524;2023-07-31T11:18:20;25.20;62.60
67817;DHT22;54614;47.576;7.524;2023-07-31T11:20:46;25.20;62.50
67817;DHT22;54614;47.576;7.524;2023-07-31T11:23:12;25.20;62.50
67817;DHT22;54614;47.576;7.524;2023-07-31T11:25:39;25.20;62.50
67817;DHT22;54614;47.576;7.524;2023-07-31T11:28:15;25.20;62.60
67817;DHT22;54614;47.576;7.524;2023-07-31T11:30:43;25.20;62.60
67817;DHT22;54614;47.576;7.524;2023-07-31T11:33:12;25.20;62.60
67817;DHT22;54614;47.576;7.524;2023-07-31T11:35:44;25.20;62.50
67817;DHT22;54614;47.576;7.524;2023-07-31T11:38:25;25.20;62.60
67817;DHT22;54614;47.576;7.524;2023-07-31T11:40:57;25.20;62.60
67817;DHT22;54614;47.576;7.524;2023-07-31T11:43:24;25.20;62.60
67817;DHT22;54614;47.576;7.524;2023-07-31T11:45:52;25.20;62.60
67817;DHT22;54614;47.576;7.524;2023-07-31T11:50:48;25.20;62.60
67817;DHT22;54614;47.576;7.524;2023-07-31T11:53:18;25.20;62.60
67817;DHT22;54614;47.576;7.524;2023-07-31T11:55:48;25.20;62.80
67817;DHT22;54614;47.576;7.524;2023-07-31T11:58:16;25.20;62.80
67817;DHT22;54614;47.576;7.524;2023-07-31T12:00:43;25.20;62.80
67817;DHT22;54614;47.576;7.524;2023-07-31T12:03:10;25.20;62.70
67817;DHT22;54614;47.576;7.524;2023-07-31T12:05:37;25.20;62.70
67817;DHT22;54614;47.576;7.524;2023-07-31T12:08:09;25.20;62.70
67817;DHT22;54614;47.576;7.524;2023-07-31T12:10:37;25.20;62.70
67817;DHT22;54614;47.576;7.524;2023-07-31T12:13:09;25.20;62.70
67817;DHT22;54614;47.576;7.524;2023-07-31T12:15:40;25.20;62.70
67817;DHT22;54614;47.576;7.524;2023-07-31T12:18:29;25.20;62.80
67817;DHT22;54614;47.576;7.524;2023-07-31T12:21:00;25.20;62.80
67817;DHT22;54614;47.576;7.524;2023-07-31T12:23:32;25.20;62.90
67817;DHT22;54614;47.576;7.524;2023-07-31T12:26:05;25.20;62.70
67817;DHT22;54614;47.576;7.524;2023-07-31T12:28:40;25.20;62.80
67817;DHT22;54614;47.576;7.524;2023-07-31T12:31:13;25.20;62.70
67817;DHT22;54614;47.576;7.524;2023-07-31T12:33:50;25.20;62.80
67817;DHT22;54614;47.576;7.524;2023-07-31T12:36:23;25.20;62.90
67817;DHT22;54614;47.576;7.524;2023-07-31T12:38:50;25.10;62.90
67817;DHT22;54614;47.576;7.524;2023-07-31T12:41:18;25.20;63.00
67817;DHT22;54614;47.576;7.524;2023-07-31T12:43:44;25.20;63.00
67817;DHT22;54614;47.576;7.524;2023-07-31T12:46:11;25.20;63.00
67817;DHT22;54614;47.576;7.524;2023-07-31T12:48:38;25.20;63.00
67817;DHT22;54614;47.576;7.524;2023-07-31T12:51:05;25.20;62.90
67817;DHT22;54614;47.576;7.524;2023-07-31T12:53:32;25.20;63.00
67817;DHT22;54614;47.576;7.524;2023-07-31T12:55:58;25.20;63.00
67817;DHT22;54614;47.576;7.524;2023-07-31T12:58:24;25.10;63.00
67817;DHT22;54614;47.576;7.524;2023-07-31T13:00:51;25.20;63.10
67817;DHT22;54614;47.576;7.524;2023-07-31T13:03:17;25.10;63.00
67817;DHT22;54614;47.576;7.524;2023-07-31T13:05:43;25.10;63.10
67817;DHT22;54614;47.576;7.524;2023-07-31T13:08:09;25.20;63.20
67817;DHT22;54614;47.576;7.524;2023-07-31T13:10:37;25.10;63.20
67817;DHT22;54614;47.576;7.524;2023-07-31T13:13:03;25.10;63.20
67817;DHT22;54614;47.576;7.524;2023-07-31T13:15:28;25.20;63.40
67817;DHT22;54614;47.576;7.524;2023-07-31T13:17:54;25.20;63.50
67817;DHT22;54614;47.576;7.524;2023-07-31T13:20:20;25.10;63.60
67817;DHT22;54614;47.576;7.524;2023-07-31T13:22:46;25.10;63.70
67817;DHT22;54614;47.576;7.524;2023-07-31T13:25:12;25.10;63.90
67817;DHT22;54614;47.576;7.524;2023-07-31T13:27:41;25.20;63.80
67817;DHT22;54614;47.576;7.524;2023-07-31T13:30:08;25.20;63.90
67817;DHT22;54614;47.576;7.524;2023-07-31T13:32:34;25.20;63.80
67817;DHT22;54614;47.576;7.524;2023-07-31T13:35:07;25.20;64.10
67817;DHT22;54614;47.576;7.524;2023-07-31T13:37:34;25.20;64.50
67817;DHT22;54614;47.576;7.524;2023-07-31T13:40:00;25.20;64.30
67817;DHT22;54614;47.576;7.524;2023-07-31T13:42:26;25.20;64.30
67817;DHT22;54614;47.576;7.524;2023-07-31T13:44:53;25.20;64.40
67817;DHT22;54614;47.576;7.524;2023-07-31T13:47:21;25.30;64.50
67817;DHT22;54614;47.576;7.524;2023-07-31T13:49:47;25.20;64.50
67817;DHT22;54614;47.576;7.524;2023-07-31T13:52:12;25.30;64.60
67817;DHT22;54614;47.576;7.524;2023-07-31T13:54:38;25.30;64.50
67817;DHT22;54614;47.576;7.524;2023-07-31T13:57:04;25.30;64.60
67817;DHT22;54614;47.576;7.524;2023-07-31T13:59:30;25.30;64.60
67817;DHT22;54614;47.576;7.524;2023-07-31T14:01:56;25.30;64.60
67817;DHT22;54614;47.576;7.524;2023-07-31T14:04:22;25.40;64.40
67817;DHT22;54614;47.576;7.524;2023-07-31T14:06:48;25.30;64.30
67817;DHT22;54614;47.576;7.524;2023-07-31T14:09:15;25.30;64.20
67817;DHT22;54614;47.576;7.524;2023-07-31T14:11:42;25.40;64.20
67817;DHT22;54614;47.576;7.524;2023-07-31T14:14:09;25.30;64.20
67817;DHT22;54614;47.576;7.524;2023-07-31T14:16:35;25.40;64.30
67817;DHT22;54614;47.576;7.524;2023-07-31T14:19:01;25.40;64.20
67817;DHT22;54614;47.576;7.524;2023-07-31T14:21:27;25.40;64.10
67817;DHT22;54614;47.576;7.524;2023-07-31T14:23:53;25.40;64.20
67817;DHT22;54614;47.576;7.524;2023-07-31T14:26:19;25.40;64.10
67817;DHT22;54614;47.576;7.524;2023-07-31T14:28:44;25.40;64.20
67817;DHT22;54614;47.576;7.524;2023-07-31T14:31:10;25.40;64.10
67817;DHT22;54614;47.576;7.524;2023-07-31T14:33:36;25.40;64.10
67817;DHT22;54614;47.576;7.524;2023-07-31T14:36:02;25.40;64.10
67817;DHT22;54614;47.576;7.524;2023-07-31T14:38:28;25.40;64.20
67817;DHT22;54614;47.576;7.524;2023-07-31T14:40:54;25.40;64.10
67817;DHT22;54614;47.576;7.524;2023-07-31T14:43:19;25.40;64.10
67817;DHT22;54614;47.576;7.524;2023-07-31T14:45:45;25.40;64.00
67817;DHT22;54614;47.576;7.524;2023-07-31T14:48:12;25.40;64.00
67817;DHT22;54614;47.576;7.524;2023-07-31T14:50:38;25.50;64.00
67817;DHT22;54614;47.576;7.524;2023-07-31T14:53:04;25.50;63.80
67817;DHT22;54614;47.576;7.524;2023-07-31T14:55:29;25.40;63.80
67817;DHT22;54614;47.576;7.524;2023-07-31T14:57:55;25.40;63.80
67817;DHT22;54614;47.576;7.524;2023-07-31T15:00:21;25.40;63.90
67817;DHT22;54614;47.576;7.524;2023-07-31T15:02:47;25.40;64.00
67817;DHT22;54614;47.576;7.524;2023-07-31T15:05:13;25.40;64.00
67817;DHT22;54614;47.576;7.524;2023-07-31T15:07:38;25.50;64.00
67817;DHT22;54614;47.576;7.524;2023-07-31T15:10:05;25.50;64.00
67817;DHT22;54614;47.576;7.524;2023-07-31T15:12:31;25.50;64.10
67817;DHT22;54614;47.576;7.524;2023-07-31T15:14:57;25.50;64.10
67817;DHT22;54614;47.576;7.524;2023-07-31T15:17:23;25.50;64.10
67817;DHT22;54614;47.576;7.524;2023-07-31T15:19:49;25.50;64.20
67817;DHT22;54614;47.576;7.524;2023-07-31T15:22:15;25.50;64.30
67817;DHT22;54614;47.576;7.524;2023-07-31T15:24:41;25.40;64.20
67817;DHT22;54614;47.576;7.524;2023-07-31T15:27:06;25.50;64.60
67817;DHT22;54614;47.576;7.524;2023-07-31T15:29:33;25.50;64.40
67817;DHT22;54614;47.576;7.524;2023-07-31T15:32:05;25.50;64.40
67817;DHT22;54614;47.576;7.524;2023-07-31T15:34:31;25.40;64.40
67817;DHT22;54614;47.576;7.524;2023-07-31T15:36:57;25.50;64.60
67817;DHT22;54614;47.576;7.524;2023-07-31T15:39:23;25.50;64.40
67817;DHT22;54614;47.576;7.524;2023-07-31T15:41:48;25.50;64.40
67817;DHT22;54614;47.576;7.524;2023-07-31T15:44:14;25.50;64.40
67817;DHT22;54614;47.576;7.524;2023-07-31T15:46:40;25.50;64.60